Portada
METAR-TAF:

METAR-TAF

Aeropuertos :

Tanegashima, Japón

latitud: 30-33N, longitud: 130-57E, altitud: 92 m

Observación

El informe se hizo hace 7 horas y 1 minutos, a las 09:00 UTC
Viento 9 kt del sureste
Temperatura 14°C
Humedad 67%
Presión 1020 hPa
Visibilidad 10 km o más
Escasas nubes a una altura de 3000 ft
Nubes dispersas a una altura de 6000 ft
Cielo nuboso

METAR: RJFG 280900Z 13009KT 9999 FEW030 SCT060 BKN/// 14/08 Q1020

Hora: 01:01 (16:01 UTC)


TAF: falta

Observaciones y pronósticos meteorológicos de más de 4000 aeropuertos (mensajes METAR y TAF).

Los puntos amarillos y rojos representan las estaciones disponibles.

Ponga el ratón en el punto deseado para ver el nombre de la estación.

Haga clic para ver las observaciones y los pronósticos meteorológicos.

Para cambiar el mapa : haga clic en los botones verdes con una cruz de color negro para hacer un zoom, en el botón verde con un guión para alejar o en las flechas verdes para mapas adyacentes.


METAR-TAF: